createdAt,value
2023-04-11T00:01:00.005Z,16.27
2023-04-11T00:03:28.962Z,16.43
2023-04-11T00:05:58.510Z,16.17
2023-04-11T00:08:26.448Z,15.63
2023-04-11T00:10:54.419Z,16.00
2023-04-11T00:13:24.322Z,16.03
2023-04-11T00:15:55.402Z,16.87
2023-04-11T00:18:25.450Z,15.63
2023-04-11T00:20:53.533Z,16.93
2023-04-11T00:23:22.853Z,16.93
2023-04-11T00:25:50.887Z,16.87
2023-04-11T00:28:18.876Z,18.47
2023-04-11T00:30:46.858Z,17.70
2023-04-11T00:33:14.846Z,19.63
2023-04-11T00:35:42.884Z,20.57
2023-04-11T00:38:10.936Z,20.10
2023-04-11T00:40:41.627Z,21.60
2023-04-11T00:43:09.700Z,22.30
2023-04-11T00:45:38.408Z,21.70
2023-04-11T00:48:07.221Z,21.73
2023-04-11T00:50:36.335Z,19.87
2023-04-11T00:53:05.691Z,19.90
2023-04-11T00:55:34.032Z,20.80
2023-04-11T00:58:04.179Z,19.73
2023-04-11T01:00:35.237Z,22.50
2023-04-11T01:03:03.500Z,19.67
2023-04-11T01:05:33.025Z,22.97
2023-04-11T01:08:01.498Z,21.23
2023-04-11T01:10:31.796Z,20.53
2023-04-11T01:13:01.213Z,20.07
2023-04-11T01:15:31.052Z,18.80
2023-04-11T01:18:02.000Z,18.10
2023-04-11T01:20:31.725Z,18.67
2023-04-11T01:23:02.642Z,16.73
2023-04-11T01:25:32.160Z,16.20
2023-04-11T01:28:00.499Z,14.10
2023-04-11T01:30:28.734Z,13.80
2023-04-11T01:32:56.832Z,14.07
2023-04-11T01:35:25.006Z,16.17
2023-04-11T01:37:53.113Z,15.13
2023-04-11T01:40:22.620Z,16.07
2023-04-11T01:42:52.989Z,15.07
2023-04-11T01:45:21.626Z,16.93
2023-04-11T01:47:50.898Z,16.73
2023-04-11T01:50:19.066Z,17.17
2023-04-11T01:52:47.058Z,16.40
2023-04-11T01:55:15.034Z,15.43
2023-04-11T01:57:43.086Z,15.33
2023-04-11T02:00:13.903Z,15.13
2023-04-11T02:02:42.605Z,15.13
2023-04-11T02:05:11.048Z,14.30
2023-04-11T02:07:39.172Z,13.80
2023-04-11T02:10:08.583Z,14.03
2023-04-11T02:12:36.564Z,13.77
2023-04-11T02:15:05.317Z,13.00
2023-04-11T02:17:34.702Z,13.37
2023-04-11T02:20:04.898Z,11.83
2023-04-11T02:22:32.909Z,11.67
2023-04-11T02:25:01.053Z,12.07
2023-04-11T02:27:29.011Z,11.47
2023-04-11T02:29:56.972Z,12.87
2023-04-11T02:32:25.008Z,12.20
2023-04-11T02:34:54.410Z,12.77
2023-04-11T02:37:22.554Z,12.13
2023-04-11T02:39:50.623Z,11.60
2023-04-11T02:42:21.063Z,11.67
2023-04-11T02:44:49.036Z,10.60
2023-04-11T02:47:17.112Z,10.23
2023-04-11T02:49:45.408Z,10.33
2023-04-11T02:52:15.000Z,9.67
2023-04-11T02:54:42.982Z,9.20
2023-04-11T02:57:10.939Z,8.03
2023-04-11T02:59:38.948Z,9.00
2023-04-11T03:02:08.595Z,9.73
2023-04-11T03:04:36.967Z,9.67
2023-04-11T03:07:04.977Z,10.20
2023-04-11T03:09:34.346Z,9.73
2023-04-11T03:12:05.234Z,10.60
2023-04-11T03:14:33.235Z,10.33
2023-04-11T03:17:02.799Z,11.23
2023-04-11T03:19:30.763Z,12.17
2023-04-11T03:21:59.077Z,12.20
2023-04-11T03:24:27.892Z,12.33
2023-04-11T03:26:57.710Z,11.70
2023-04-11T03:29:25.917Z,12.23
2023-04-11T03:31:53.964Z,12.53
2023-04-11T03:34:23.466Z,12.13
2023-04-11T03:36:51.442Z,12.70
2023-04-11T03:39:20.315Z,11.90
2023-04-11T03:41:48.302Z,12.57
2023-04-11T03:44:19.200Z,12.30
2023-04-11T03:46:47.224Z,11.87
2023-04-11T03:49:15.221Z,12.37
2023-04-11T03:51:43.243Z,12.27
2023-04-11T03:54:11.251Z,11.77
2023-04-11T03:56:39.255Z,12.30
2023-04-11T03:59:07.244Z,11.43
2023-04-11T04:01:38.063Z,11.83
2023-04-11T04:04:07.423Z,11.00
2023-04-11T04:06:35.785Z,11.77
2023-04-11T04:09:04.849Z,11.47
2023-04-11T04:11:33.044Z,12.97
2023-04-11T04:14:03.704Z,13.30
2023-04-11T04:16:31.946Z,13.80
2023-04-11T04:19:02.551Z,14.40
2023-04-11T04:21:32.880Z,14.50
2023-04-11T04:24:03.778Z,13.97
2023-04-11T04:26:31.965Z,13.63
2023-04-11T04:29:04.572Z,13.30
2023-04-11T04:31:34.346Z,13.90
2023-04-11T04:34:08.796Z,12.77
2023-04-11T04:36:46.181Z,12.70
2023-04-11T04:39:18.089Z,12.77
2023-04-11T04:41:48.516Z,13.07
2023-04-11T04:44:17.427Z,13.10
2023-04-11T04:46:45.445Z,12.80
2023-04-11T04:49:14.780Z,13.00
2023-04-11T04:51:43.031Z,12.90
2023-04-11T04:54:11.224Z,13.93
2023-04-11T04:56:41.038Z,14.73
2023-04-11T04:59:14.506Z,15.43
2023-04-11T05:01:42.815Z,17.20
2023-04-11T05:04:11.386Z,17.20
2023-04-11T05:06:41.271Z,17.80
2023-04-11T05:09:09.669Z,19.20
2023-04-11T05:11:37.659Z,18.63
2023-04-11T05:14:05.697Z,17.77
2023-04-11T05:16:33.724Z,16.60
2023-04-11T05:19:01.748Z,15.97
2023-04-11T05:21:29.734Z,15.80
2023-04-11T05:23:59.077Z,16.27
2023-04-11T05:26:29.924Z,14.73
2023-04-11T05:28:57.998Z,13.63
2023-04-11T05:31:26.831Z,13.20
2023-04-11T05:33:55.148Z,14.13
2023-04-11T05:36:23.624Z,14.60
2023-04-11T05:38:54.283Z,13.80
2023-04-11T05:41:23.700Z,13.63
2023-04-11T05:43:53.787Z,12.73
2023-04-11T05:46:22.048Z,12.30
2023-04-11T05:48:50.047Z,11.77
2023-04-11T05:51:18.053Z,12.00
2023-04-11T05:53:46.223Z,12.20
2023-04-11T05:56:14.194Z,11.43
2023-04-11T05:58:44.521Z,10.97
2023-04-11T06:01:18.242Z,11.43
2023-04-11T06:03:47.022Z,12.57
2023-04-11T06:06:15.688Z,12.80
2023-04-11T06:08:44.174Z,12.33
2023-04-11T06:11:12.297Z,12.23
2023-04-11T06:13:40.388Z,11.17
2023-04-11T06:16:12.553Z,11.10
2023-04-11T06:18:42.005Z,10.40
2023-04-11T06:21:09.996Z,10.07
2023-04-11T06:23:37.953Z,11.93
2023-04-11T06:26:06.319Z,13.80
2023-04-11T06:28:36.711Z,15.97
2023-04-11T06:31:04.801Z,15.90
2023-04-11T06:33:35.355Z,16.27
2023-04-11T06:36:05.979Z,16.50
2023-04-11T06:38:36.577Z,17.27
2023-04-11T06:41:04.683Z,17.33
2023-04-11T06:43:32.651Z,16.20
2023-04-11T06:46:00.844Z,13.83
2023-04-11T06:48:28.887Z,12.50
2023-04-11T06:50:58.278Z,11.83
2023-04-11T06:53:26.244Z,11.27
2023-04-11T06:55:54.253Z,10.87
2023-04-11T06:58:22.255Z,10.27
2023-04-11T07:00:51.462Z,9.13
2023-04-11T07:03:20.035Z,8.73
2023-04-11T07:05:48.545Z,7.20
2023-04-11T07:08:17.926Z,6.90
2023-04-11T07:10:45.973Z,8.03
2023-04-11T07:13:14.010Z,7.60
2023-04-11T07:15:44.501Z,7.37
2023-04-11T07:18:12.500Z,7.10
2023-04-11T07:20:40.546Z,6.77
2023-04-11T07:23:08.544Z,7.30
2023-04-11T07:25:39.457Z,7.40
2023-04-11T07:28:08.517Z,8.00
2023-04-11T07:30:36.805Z,8.60
2023-04-11T07:33:05.264Z,8.53
2023-04-11T07:35:34.622Z,9.90
2023-04-11T07:38:02.928Z,9.33
2023-04-11T07:40:31.188Z,9.43
2023-04-11T07:43:01.819Z,10.00
2023-04-11T07:45:32.152Z,10.20
2023-04-11T07:48:00.924Z,9.80
2023-04-11T07:50:28.960Z,9.43
2023-04-11T07:52:57.546Z,9.63
2023-04-11T07:55:25.551Z,8.57
2023-04-11T07:57:53.530Z,8.07
2023-04-11T08:00:24.147Z,7.97
2023-04-11T08:02:52.878Z,7.17
2023-04-11T08:05:21.414Z,7.00
2023-04-11T08:07:49.432Z,7.30
2023-04-11T08:10:17.615Z,6.80
2023-04-11T08:12:45.602Z,6.73
2023-04-11T08:15:13.670Z,6.67
2023-04-11T08:17:43.817Z,7.00
2023-04-11T08:20:13.838Z,7.13
2023-04-11T08:22:44.641Z,6.40
2023-04-11T08:25:15.583Z,6.30
2023-04-11T08:27:43.663Z,7.00
2023-04-11T08:30:14.894Z,7.23
2023-04-11T08:32:44.450Z,6.13
2023-04-11T08:35:12.671Z,6.17
2023-04-11T08:37:44.376Z,6.53
2023-04-11T08:40:12.695Z,6.20
2023-04-11T08:42:40.698Z,6.70
2023-04-11T08:45:10.211Z,5.83
2023-04-11T08:47:38.330Z,5.83
2023-04-11T08:50:09.555Z,6.27
2023-04-11T08:52:40.691Z,6.10
2023-04-11T08:55:09.504Z,6.00
2023-04-11T08:57:38.168Z,6.80
2023-04-11T09:00:14.430Z,6.23
2023-04-11T09:02:59.840Z,6.50
2023-04-11T09:05:32.431Z,6.63
2023-04-11T09:08:01.509Z,6.10
2023-04-11T09:10:29.748Z,6.70
2023-04-11T09:12:58.956Z,6.07
2023-04-11T09:15:28.909Z,6.20
2023-04-11T09:18:00.624Z,6.53
2023-04-11T09:20:31.193Z,6.77
2023-04-11T09:23:00.120Z,6.27
2023-04-11T09:25:28.729Z,6.43
2023-04-11T09:28:09.386Z,6.03
2023-04-11T09:30:37.459Z,6.40
2023-04-11T09:33:22.835Z,6.03
2023-04-11T09:35:54.671Z,6.20
2023-04-11T09:38:30.157Z,5.90
2023-04-11T09:40:58.480Z,5.87
2023-04-11T09:43:26.634Z,5.80
2023-04-11T09:46:11.769Z,4.53
2023-04-11T09:51:20.725Z,4.23
2023-04-11T09:53:56.574Z,4.83
2023-04-11T09:56:26.580Z,5.60
2023-04-11T09:58:58.277Z,5.63
2023-04-11T10:01:27.345Z,5.93
2023-04-11T10:03:57.911Z,6.17
2023-04-11T10:06:35.509Z,5.80
2023-04-11T10:09:09.414Z,6.03
2023-04-11T10:11:37.637Z,5.37
2023-04-11T10:14:05.699Z,5.37
2023-04-11T10:16:34.357Z,5.80
2023-04-11T10:19:25.243Z,5.93
2023-04-11T10:21:54.830Z,4.83
2023-04-11T10:24:23.227Z,4.33
2023-04-11T10:26:56.042Z,3.80
2023-04-11T10:29:51.380Z,3.80
2023-04-11T10:32:24.759Z,4.00
2023-04-11T10:35:29.867Z,5.17
2023-04-11T10:37:59.224Z,5.17
2023-04-11T10:40:27.272Z,4.73
2023-04-11T10:42:55.350Z,4.57
2023-04-11T10:45:25.479Z,4.87
2023-04-11T10:48:12.628Z,4.17
2023-04-11T10:50:45.801Z,4.33
2023-04-11T10:53:38.426Z,4.37
2023-04-11T10:56:06.907Z,4.30
2023-04-11T10:58:40.293Z,4.60
2023-04-11T11:01:37.406Z,3.90
2023-04-11T11:04:11.393Z,4.00
2023-04-11T11:06:47.432Z,3.57
2023-04-11T11:09:24.465Z,3.67
2023-04-11T11:12:10.833Z,3.63
2023-04-11T11:14:39.499Z,4.00
2023-04-11T11:17:08.938Z,3.80
2023-04-11T11:19:37.505Z,4.00
2023-04-11T11:22:06.183Z,3.13
2023-04-11T11:24:35.563Z,3.43
2023-04-11T11:27:03.631Z,3.70
2023-04-11T11:29:36.834Z,3.60
2023-04-11T11:32:05.492Z,3.23
2023-04-11T11:34:35.014Z,3.20
2023-04-11T11:37:05.488Z,3.60
2023-04-11T11:39:35.412Z,3.20
2023-04-11T11:42:04.453Z,3.33
2023-04-11T11:44:32.694Z,3.60
2023-04-11T11:47:05.054Z,3.37
2023-04-11T11:49:46.764Z,3.50
2023-04-11T11:52:32.064Z,3.27
2023-04-11T11:55:02.568Z,3.40
2023-04-11T11:57:32.043Z,3.10
2023-04-11T12:00:05.913Z,3.10
2023-04-11T12:02:36.515Z,2.90
2023-04-11T12:05:07.537Z,3.17
2023-04-11T12:07:38.694Z,2.97
2023-04-11T12:10:11.790Z,2.80
2023-04-11T12:12:44.455Z,3.67
2023-04-11T12:15:25.586Z,3.27
2023-04-11T12:17:54.927Z,3.30
2023-04-11T12:20:27.486Z,3.00
2023-04-11T12:22:56.108Z,3.07
2023-04-11T12:25:26.653Z,3.13
2023-04-11T12:27:55.156Z,3.20
2023-04-11T12:30:27.216Z,3.03
2023-04-11T12:32:56.303Z,3.03
2023-04-11T12:35:24.598Z,2.77
2023-04-11T12:37:52.673Z,3.20
2023-04-11T12:40:20.888Z,3.00
2023-04-11T12:42:56.725Z,3.10
2023-04-11T12:45:26.142Z,2.77
2023-04-11T12:47:54.592Z,2.60
2023-04-11T12:50:24.409Z,3.20
2023-04-11T12:52:56.345Z,2.97
2023-04-11T12:55:24.742Z,2.90
2023-04-11T12:57:54.229Z,2.83
2023-04-11T13:00:22.593Z,3.03
2023-04-11T13:02:50.735Z,2.70
2023-04-11T13:05:19.815Z,2.87
2023-04-11T13:07:47.926Z,3.10
2023-04-11T13:10:16.823Z,3.00
2023-04-11T13:12:45.929Z,3.30
2023-04-11T13:15:17.174Z,3.40
2023-04-11T13:17:45.635Z,3.50
2023-04-11T13:20:14.351Z,3.30
2023-04-11T13:22:43.756Z,3.30
2023-04-11T13:25:14.993Z,3.10
2023-04-11T13:27:44.524Z,2.73
2023-04-11T13:30:16.664Z,3.17
2023-04-11T13:32:44.765Z,3.37
2023-04-11T13:35:15.736Z,3.40
2023-04-11T13:37:43.733Z,3.13
2023-04-11T13:40:13.790Z,3.40
2023-04-11T13:42:41.831Z,3.50
2023-04-11T13:45:10.761Z,3.40
2023-04-11T13:47:40.163Z,3.23
2023-04-11T13:50:09.996Z,3.40
2023-04-11T13:52:38.059Z,3.30
2023-04-11T13:55:06.940Z,3.30
2023-04-11T13:57:35.078Z,3.30
2023-04-11T14:00:06.757Z,3.10
2023-04-11T14:02:34.922Z,2.80
2023-04-11T14:05:04.528Z,3.30
2023-04-11T14:07:32.573Z,3.50
2023-04-11T14:10:00.634Z,3.40
2023-04-11T14:12:28.724Z,3.40
2023-04-11T14:14:56.806Z,3.33
2023-04-11T14:17:24.852Z,3.90
2023-04-11T14:19:52.924Z,3.93
2023-04-11T14:22:24.758Z,3.60
2023-04-11T14:24:53.003Z,3.90
2023-04-11T14:27:21.014Z,4.17
2023-04-11T14:29:49.028Z,3.63
2023-04-11T14:32:18.191Z,4.03
2023-04-11T14:34:46.824Z,4.00
2023-04-11T14:37:15.173Z,4.07
2023-04-11T14:39:44.647Z,3.80
2023-04-11T14:42:13.319Z,3.83
2023-04-11T14:44:41.600Z,3.83
2023-04-11T14:47:09.727Z,3.60
2023-04-11T14:49:37.747Z,4.00
2023-04-11T14:52:05.949Z,3.67
2023-04-11T14:54:34.012Z,4.00
2023-04-11T14:57:05.565Z,4.33
2023-04-11T14:59:33.899Z,4.17
2023-04-11T15:02:04.007Z,4.27
2023-04-11T15:04:32.199Z,4.00
2023-04-11T15:07:00.260Z,4.20
2023-04-11T15:09:28.247Z,4.20
2023-04-11T15:11:56.986Z,4.50
2023-04-11T15:14:29.439Z,4.20
2023-04-11T15:16:57.850Z,4.10
2023-04-11T15:19:25.871Z,4.53
2023-04-11T15:21:54.119Z,4.60
2023-04-11T15:24:22.150Z,4.37
2023-04-11T15:26:50.166Z,4.40
2023-04-11T15:29:18.211Z,4.87
2023-04-11T15:31:47.657Z,5.10
2023-04-11T15:34:16.710Z,5.10
2023-04-11T15:36:45.214Z,4.77
2023-04-11T15:39:13.263Z,4.93
2023-04-11T15:41:41.387Z,5.47
2023-04-11T15:44:09.663Z,5.30
2023-04-11T15:46:37.711Z,5.40
2023-04-11T15:49:07.116Z,5.37
2023-04-11T15:51:35.148Z,5.70
2023-04-11T15:54:05.798Z,5.97
2023-04-11T15:56:34.368Z,5.60
2023-04-11T15:59:02.435Z,5.80
2023-04-11T16:01:30.961Z,6.57
2023-04-11T16:03:59.661Z,8.47
2023-04-11T16:06:29.424Z,7.90
2023-04-11T16:08:57.459Z,7.83
2023-04-11T16:11:29.538Z,7.73
2023-04-11T16:13:58.119Z,8.60
2023-04-11T16:16:26.378Z,8.50
2023-04-11T16:18:54.416Z,8.27
2023-04-11T16:21:24.750Z,8.50
2023-04-11T16:23:55.510Z,7.77
2023-04-11T16:26:24.096Z,7.23
2023-04-11T16:28:52.099Z,5.40
2023-04-11T16:31:24.396Z,5.27
2023-04-11T16:33:53.669Z,4.83
2023-04-11T16:36:22.387Z,4.00
2023-04-11T16:38:51.226Z,4.13
2023-04-11T16:41:20.857Z,4.50
2023-04-11T16:43:48.909Z,3.50
2023-04-11T16:46:17.196Z,3.60
2023-04-11T16:48:47.617Z,4.00
2023-04-11T16:51:18.256Z,4.00
2023-04-11T16:53:47.362Z,3.20
2023-04-11T16:56:15.444Z,3.07
2023-04-11T16:58:45.194Z,3.20
2023-04-11T17:01:13.765Z,3.80
2023-04-11T17:03:49.025Z,3.97
2023-04-11T17:06:17.940Z,3.50
2023-04-11T17:08:46.060Z,3.60
2023-04-11T17:11:15.582Z,3.80
2023-04-11T17:13:45.973Z,4.20
2023-04-11T17:16:18.376Z,3.63
2023-04-11T17:18:46.468Z,3.30
2023-04-11T17:21:16.689Z,3.33
2023-04-11T17:23:44.826Z,3.63
2023-04-11T17:26:15.620Z,4.07
2023-04-11T17:28:48.443Z,3.83
2023-04-11T17:31:18.781Z,3.93
2023-04-11T17:33:47.072Z,4.20
2023-04-11T17:36:15.267Z,4.90
2023-04-11T17:38:45.252Z,6.33
2023-04-11T17:41:15.362Z,6.40
2023-04-11T17:43:45.365Z,5.87
2023-04-11T17:46:13.805Z,6.20
2023-04-11T17:48:42.060Z,6.33
2023-04-11T17:51:10.196Z,6.03
2023-04-11T17:53:41.065Z,6.30
2023-04-11T17:56:09.641Z,6.30
2023-04-11T17:58:44.852Z,5.23
2023-04-11T18:01:16.210Z,5.33
2023-04-11T18:03:47.645Z,5.50
2023-04-11T18:06:23.942Z,6.07
2023-04-11T18:08:53.733Z,5.10
2023-04-11T18:11:22.022Z,5.50
2023-04-11T18:13:50.689Z,5.53
2023-04-11T18:16:23.761Z,5.50
2023-04-11T18:18:51.863Z,5.87
2023-04-11T18:21:22.409Z,6.10
2023-04-11T18:23:56.222Z,6.40
2023-04-11T18:26:37.258Z,6.70
2023-04-11T18:29:16.112Z,5.53
2023-04-11T18:31:46.318Z,5.67
2023-04-11T18:34:18.157Z,6.10
2023-04-11T18:36:57.927Z,6.47
2023-04-11T18:39:27.337Z,6.23
2023-04-11T18:41:59.310Z,6.87
2023-04-11T18:44:34.318Z,6.53
2023-04-11T18:47:12.153Z,7.10
2023-04-11T18:49:48.171Z,7.73
2023-04-11T18:52:19.273Z,7.77
2023-04-11T18:54:50.646Z,7.13
2023-04-11T18:57:19.830Z,5.40
2023-04-11T18:59:50.621Z,4.87
2023-04-11T19:02:23.606Z,4.50
2023-04-11T19:04:55.601Z,3.90
2023-04-11T19:07:44.926Z,3.90
2023-04-11T19:10:24.742Z,3.40
2023-04-11T19:13:01.161Z,3.40
2023-04-11T19:15:38.905Z,3.47
2023-04-11T19:18:16.580Z,3.67
2023-04-11T19:20:48.504Z,3.40
2023-04-11T19:23:23.983Z,3.40
2023-04-11T19:26:07.619Z,3.10
2023-04-11T19:28:44.142Z,3.13
2023-04-11T19:31:28.929Z,3.30
2023-04-11T19:34:07.346Z,3.47
2023-04-11T19:36:41.749Z,3.30
2023-04-11T19:39:14.288Z,3.10
2023-04-11T19:41:47.653Z,2.80
2023-04-11T19:44:24.159Z,2.87
2023-04-11T19:46:55.234Z,3.20
2023-04-11T19:49:44.244Z,3.27
2023-04-11T19:52:19.898Z,2.80
2023-04-11T19:54:51.451Z,2.27
2023-04-11T19:57:25.298Z,2.67
2023-04-11T19:59:56.751Z,2.20
2023-04-11T20:02:34.003Z,1.90
2023-04-11T20:05:06.014Z,2.13
2023-04-11T20:07:45.416Z,2.00
2023-04-11T20:10:28.366Z,1.70
2023-04-11T20:13:09.873Z,1.87
2023-04-11T20:15:55.381Z,1.50
2023-04-11T20:18:33.938Z,1.60
2023-04-11T20:21:09.376Z,1.80
2023-04-11T20:23:38.288Z,1.87
2023-04-11T20:26:08.431Z,1.70
2023-04-11T20:28:39.870Z,1.60
2023-04-11T20:31:34.954Z,1.80
2023-04-11T20:34:03.472Z,1.80
2023-04-11T20:36:32.883Z,1.87
2023-04-11T20:39:01.032Z,1.60
2023-04-11T20:41:30.272Z,1.60
2023-04-11T20:43:59.305Z,1.90
2023-04-11T20:46:29.983Z,2.10
2023-04-11T20:48:58.188Z,1.80
2023-04-11T20:51:26.697Z,1.93
2023-04-11T20:53:58.971Z,2.03
2023-04-11T20:56:27.070Z,1.73
2023-04-11T20:58:55.077Z,2.00
2023-04-11T21:01:26.304Z,2.17
2023-04-11T21:03:57.547Z,2.20
2023-04-11T21:06:26.102Z,2.30
2023-04-11T21:08:54.096Z,2.37
2023-04-11T21:11:23.510Z,2.43
2023-04-11T21:13:52.123Z,2.80
2023-04-11T21:16:21.588Z,2.67
2023-04-11T21:18:49.782Z,2.43
2023-04-11T21:21:17.791Z,2.40
2023-04-11T21:23:45.942Z,2.10
2023-04-11T21:26:13.982Z,2.57
2023-04-11T21:28:43.571Z,2.50
2023-04-11T21:31:11.882Z,2.40
2023-04-11T21:33:39.940Z,2.90
2023-04-11T21:36:08.897Z,3.33
2023-04-11T21:38:37.009Z,3.70
2023-04-11T21:41:04.990Z,3.90
2023-04-11T21:43:32.997Z,4.60
2023-04-11T21:46:02.411Z,5.53
2023-04-11T21:48:30.431Z,6.23
2023-04-11T21:50:58.769Z,7.07
2023-04-11T21:53:27.365Z,8.57
2023-04-11T21:55:55.347Z,9.07
2023-04-11T21:58:29.047Z,9.27
2023-04-11T22:00:57.984Z,9.87
2023-04-11T22:03:29.022Z,9.47
2023-04-11T22:05:58.190Z,9.70
2023-04-11T22:08:29.387Z,9.50
2023-04-11T22:10:57.630Z,10.60
2023-04-11T22:13:26.313Z,9.63
2023-04-11T22:16:05.187Z,9.27
2023-04-11T22:18:46.095Z,9.53
2023-04-11T22:21:19.677Z,9.57
2023-04-11T22:23:49.926Z,10.00
2023-04-11T22:26:18.189Z,10.47
2023-04-11T22:28:46.296Z,10.13
2023-04-11T22:31:14.856Z,11.13
2023-04-11T22:33:47.490Z,9.53
2023-04-11T22:36:16.096Z,9.50
2023-04-11T22:38:44.721Z,9.03
2023-04-11T22:41:16.342Z,8.80
2023-04-11T22:43:44.957Z,8.40
2023-04-11T22:46:13.450Z,8.40
2023-04-11T22:48:42.476Z,7.80
2023-04-11T22:51:13.984Z,7.60
2023-04-11T22:53:42.770Z,7.50
2023-04-11T22:56:12.141Z,7.13
2023-04-11T22:58:40.524Z,8.13
2023-04-11T23:01:13.868Z,7.40
2023-04-11T23:03:43.384Z,7.67
2023-04-11T23:06:14.356Z,7.27
2023-04-11T23:08:42.364Z,7.07
2023-04-11T23:11:10.363Z,6.57
2023-04-11T23:13:38.362Z,6.67
2023-04-11T23:16:09.044Z,7.17
2023-04-11T23:18:37.167Z,6.07
2023-04-11T23:21:05.803Z,6.53
2023-04-11T23:23:35.168Z,7.10
2023-04-11T23:26:03.555Z,6.47
2023-04-11T23:28:32.365Z,6.80
2023-04-11T23:31:01.738Z,6.60
2023-04-11T23:33:30.934Z,7.17
2023-04-11T23:35:58.955Z,7.90
2023-04-11T23:38:26.979Z,7.87
2023-04-11T23:40:56.436Z,8.70
2023-04-11T23:43:24.445Z,9.50
2023-04-11T23:45:52.566Z,9.80
2023-04-11T23:48:20.701Z,10.00
2023-04-11T23:50:48.801Z,12.87
2023-04-11T23:53:17.093Z,13.07
2023-04-11T23:55:45.167Z,13.70
2023-04-11T23:58:14.588Z,16.40
